Tropical Cyclones
[Index]
Main Index Home Page Stock Weather Photos Extreme Storms Discussion Storm News and Storm Chasing Reports Tropical Cyclones / Hurricanes / Typhoons Weather Data and Links Wild Fires / Bushfires Weather Observation Techniques Weather Picture Catalogue Tornado Pictures and Reports Stock Video Footage and DVDs for sale
Season 1996-1997 Tropical Cyclone RACHEL Track Map
Season 1996-1997 Summaries: [BoM-AU] [JTWC-AU] [JTWC-SIO] [JTWC-SPAC] [JTWC-SH]
<<- Previous TC | JTWC 1996-1997 Season | Next TC ->>

click for intensity scale information  Lat/long Grid: Show Hide

 Date Labels: Show Hide

Joint Typhoon Warning Centre Cyclone Data

Name: RACHEL

30 Dec 1996 00:00 UTC to 11 Jan 1997 12:00 UTC

    date/time    lat    long     hPa   cat  kts
1996-12-30 00   14.9   137.1                  15          
1996-12-30 06   14.7   136.5                  15          
1996-12-30 12   14.5   135.9                  15          
1996-12-30 18   14.3   135.4                  15          
1996-12-31 00   14.0   135.0                  15          
1996-12-31 06   13.6   134.6                  20          
1996-12-31 12   13.2   134.1                  20          
1996-12-31 18   12.8   133.7                  20          
1997-01-01 00   12.5   133.3                  25          
1997-01-01 06   12.2   133.0                  25          
1997-01-01 12   11.9   132.7                  25          
1997-01-01 18   11.6   132.3                  25          
1997-01-02 00   11.3   131.9                  30          
1997-01-02 06   11.1   131.4                  30          
1997-01-02 12   11.0   130.9                  30          
1997-01-02 18   11.2   130.2                  35          
1997-01-03 00   11.7   129.5            1     40          
1997-01-03 06   12.2   128.7            1     45          
1997-01-03 12   12.8   128.0            1     50          
1997-01-03 18   13.3   127.2            2     55          
1997-01-04 00   13.8   126.3            2     55          
1997-01-04 06   14.3   125.4            1     50          
1997-01-04 12   15.0   124.7            1     45          
1997-01-04 18   15.6   124.0            1     45          
1997-01-05 00   16.1   123.2            1     50          
1997-01-05 06   16.4   122.4            2     55          
1997-01-05 12   17.0   121.8            2     55          
1997-01-05 18   17.4   121.3            2     55          
1997-01-06 00   17.8   120.8            2     55          
1997-01-06 06   18.1   120.3            2     60          
1997-01-06 12   18.4   119.8            2     70          
1997-01-06 18   18.9   119.2            3     80          
1997-01-07 00   19.4   118.7            3     80          
1997-01-07 06   20.1   118.6            3     75          
1997-01-07 12   20.8   118.5            2     65          
1997-01-07 18   21.7   118.5            2     55          
1997-01-08 00   22.6   118.4            1     45          
1997-01-08 06   23.5   118.6                  35          
1997-01-08 12   24.2   118.9                  30          
1997-01-08 18   24.8   119.4                  30          
1997-01-09 00   25.5   119.8                  30          
1997-01-09 06   26.0   120.3                  30          
1997-01-09 12   26.5   120.9                  30          
1997-01-09 18   27.2   121.4                  25          
1997-01-10 00   27.8   121.9                  25          
1997-01-10 06   28.3   122.3                  25          
1997-01-10 12   28.7   122.9                  25          
1997-01-10 18   29.1   123.5                  25          
1997-01-11 00   29.3   124.2                  20          
1997-01-11 06   29.5   124.9                  20          
1997-01-11 12   29.6   125.6                  15          
Winds are 1-min average.

Tropical cyclone tracks developed by Michael Bath using data from the Joint Typhoon Warning Centre Best Tracks and Google Maps.


[Australian Severe Weather index] [Copyright Notice] [Email Contacts] [Search This Site] [Privacy Policy]
Document: tropical_cyclone_rachel.htm Updated: 18 September 2016